< Cyclone 201926 2020 Season Cyclone 202003 >
Cyclone 202002 (Blake)
General InformationDetailed Track InformationTrack Information on Google MapsList of All Images || ResourceGoogle EarthGE AnimationAtom FeedGeoJSON
Detalied Best Track Wind (Time Zone = UTC)
Year Month Day Hour Lat. Long. Wind (kt) Gust (kt) Direc. of Major Storm Axis Radius of Major Storm Axis (nm) Radius of Minor Storm Axis (nm) Direc. of Major Gale Axis Radius of Major Gale Axis (nm) Radius of Minor Gale Axis (nm) Image
2020 1 4 00 -13.7 122.2 15 35 symmetric - - symmetric - - Image
2020 1 4 06 -13.8 122.1 20 45 symmetric - - symmetric - - Image
2020 1 4 12 -13.9 122.0 25 45 symmetric - - symmetric - - Image
2020 1 4 18 -14.9 121.5 25 45 symmetric - - symmetric - - Image
2020 1 5 00 -15.9 121.0 25 45 symmetric - - symmetric - - Image
2020 1 5 06 -15.6 121.1 30 45 symmetric - - symmetric - - Image
2020 1 5 12 -15.4 121.2 30 45 symmetric - - symmetric - - Image
2020 1 5 18 -15.7 121.5 35 50 symmetric - - symmetric - - Image
2020 1 6 00 -15.9 122.0 40 55 symmetric - - symmetric - - Image
2020 1 6 06 -16.7 122.3 40 55 symmetric - - symmetric - - Image
2020 1 6 09 -17.1 122.3 40 55 symmetric - - symmetric - - Image
2020 1 6 12 -17.3 122.4 40 55 symmetric - - symmetric - - Image
2020 1 6 18 -17.6 122.1 35 50 symmetric - - symmetric - - Image
2020 1 7 00 -18.0 121.6 40 55 symmetric - - symmetric - - Image
2020 1 7 06 -18.7 121.1 40 55 symmetric - - symmetric - - Image
2020 1 7 12 -19.3 121.0 40 55 symmetric - - symmetric - - Image
2020 1 7 15 -19.7 120.8 40 55 symmetric - - symmetric - - Image
2020 1 7 18 -19.9 120.5 30 45 symmetric - - symmetric - - Image
2020 1 8 00 -20.0 119.7 30 45 symmetric - - symmetric - - Image
2020 1 8 06 -20.2 119.5 30 45 symmetric - - symmetric - - Image
< Cyclone 201926 2020 Season Cyclone 202003 >

Help